Погода Рабянына неделю

Мазовецкое воеводство, Польша

18 - 24 июля
  • 18июля
    Сегодня
    +14°
    +27°
    Небольшая облачность
    ВремяПогодаТемператураВлажностьДавлениеВетер, м/сВероятность осадков
    02:00Облачно с прояснениями+18°C72 %754 мм1.2 м/с18 %
    05:00Ясно и безоблачно+17°C83 %754 мм1.2 м/с13 %
    08:00Ясно и безоблачно+21°C70 %754 мм2.0 м/с2 %
    11:00Практически безоблачно+24°C51 %754 мм3.1 м/с4 %
    14:00Небольшая облачность+25°C44 %754 мм3.5 м/с2 %
    17:00Небольшая облачность+26°C43 %754 мм3.5 м/с2 %
    20:00Ясно и безоблачно+23°C54 %754 мм1.9 м/с2 %
    23:00Небольшая облачность+18°C66 %755 мм1.3 м/с2 %
  • 19июля
    Пятница
    +13°
    +26°
    Ясно и безоблачно
    ВремяПогодаТемператураВлажностьДавлениеВетер, м/сВероятность осадков
    02:00Ясно и безоблачно+16°C79 %755 мм1.0 м/с2 %
    05:00Облачно с прояснениями+14°C89 %755 мм1.0 м/с2 %
    08:00Облачно с прояснениями+19°C73 %755 мм1.4 м/с2 %
    11:00Ясно и безоблачно+24°C52 %755 мм2.7 м/с2 %
    14:00Ясно и безоблачно+25°C45 %754 мм3.1 м/с2 %
    17:00Ясно и безоблачно+26°C43 %753 мм3.0 м/с2 %
    20:00Ясно и безоблачно+22°C52 %752 мм1.5 м/с2 %
    23:00Ясно и безоблачно+17°C68 %752 мм1.0 м/с2 %
  • 20июля
    Суббота
    +14°
    +27°
    Ясно и безоблачно
    ВремяПогодаТемператураВлажностьДавлениеВетер, м/сВероятность осадков
    02:00Ясно и безоблачно+14°C84 %752 мм0.6 м/с2 %
    05:00Небольшая облачность+13°C82 %751 мм0.5 м/с2 %
    08:00Небольшая облачность+20°C63 %751 мм0.7 м/с2 %
    11:00Практически безоблачно+24°C48 %750 мм2.0 м/с2 %
    14:00Ясно и безоблачно+26°C43 %749 мм2.0 м/с2 %
    17:00Ясно и безоблачно+27°C39 %748 мм1.9 м/с2 %
    20:00Ясно и безоблачно+23°C62 %748 мм1.2 м/с2 %
    23:00Ясно и безоблачно+18°C62 %747 мм0.9 м/с2 %
  • 21июля
    Воскресенье
    +15°
    +30°
    Небольшая облачность
    ВремяПогодаТемператураВлажностьДавлениеВетер, м/сВероятность осадков
    02:00Ясно и безоблачно+16°C76 %747 мм0.7 м/с2 %
    05:00Ясно и безоблачно+14°C84 %747 мм0.8 м/с2 %
    08:00Ясно и безоблачно+21°C58 %747 мм1.0 м/с2 %
    11:00Практически безоблачно+26°C40 %746 мм2.2 м/с2 %
    14:00Небольшая облачность+29°C33 %746 мм1.7 м/с2 %
    17:00Облачно с прояснениями+30°C32 %745 мм1.7 м/с3 %
    20:00Небольшая облачность+25°C57 %745 мм1.3 м/с2 %
    23:00Ясно и безоблачно+21°C62 %745 мм1.0 м/с2 %
  • 22июля
    Понедельник
    +17°
    +31°
    Облачно с прояснениями
    ВремяПогодаТемператураВлажностьДавлениеВетер, м/сВероятность осадков
    02:00Ясно и безоблачно+17°C66 %745 мм0.6 м/с2 %
    05:00Ясно и безоблачно+16°C74 %745 мм1.0 м/с2 %
    08:00Ясно и безоблачно+23°C56 %745 мм1.1 м/с2 %
    11:00Ясно и безоблачно+28°C36 %745 мм2.3 м/с3 %
    14:00Облачно с прояснениями+30°C31 %745 мм2.2 м/с12 %
    17:00Пасмурно, сплошная облачность+30°C30 %745 мм1.6 м/с20 %
    20:00Практически безоблачно+26°C41 %745 мм0.8 м/с27 %
    23:00Пасмурно, сплошная облачность+22°C65 %746 мм1.3 м/с22 %
Мы используем cookies
Соглашаюсь